Time;durP1;ratioP1;P1;durP2;ratioP2;P2;SDS_P1;SDS_P2;PMS_P1;PMS_P2;Temp;Humidity;BMP_temperature;BMP_pressure;BME280_temperature;BME280_humidity;BME280_pressure;Samples;Min_cycle;Max_cycle;Signal;HPM_P1;HPM_P2
2021/12/01 00:01:05;;;;;;;38.17;15.15;;;9.10;99.90;;;;;;5094173;28;20272;-83
2021/12/01 00:03:31;;;;;;;34.13;14.52;;;9.10;99.90;;;;;;5076528;27;20127;-83
2021/12/01 00:05:57;;;;;;;32.60;14.32;;;9.10;99.90;;;;;;5111123;27;20299;-83
2021/12/01 00:08:23;;;;;;;34.22;14.80;;;9.20;99.90;;;;;;5093460;27;20039;-83
2021/12/01 00:10:49;;;;;;;28.42;14.15;;;9.20;99.90;;;;;;5112340;27;20046;-83
2021/12/01 00:13:17;;;;;;;31.95;14.93;;;9.20;99.90;;;;;;5099844;28;20043;-83
2021/12/01 00:15:45;;;;;;;31.70;16.15;;;9.30;99.90;;;;;;5103336;27;20035;-83
2021/12/01 00:18:11;;;;;;;34.95;16.13;;;9.30;99.90;;;;;;5090075;28;20499;-83
2021/12/01 00:20:39;;;;;;;30.55;15.70;;;9.30;99.90;;;;;;5127617;27;20024;-83
2021/12/01 00:23:05;;;;;;;29.88;16.88;;;9.30;99.90;;;;;;5111822;27;20521;-83
2021/12/01 00:25:35;;;;;;;31.23;17.88;;;9.40;99.90;;;;;;5084989;27;20496;-83
2021/12/01 00:28:01;;;;;;;37.05;19.83;;;9.50;99.90;;;;;;5088933;27;20047;-83
2021/12/01 00:30:27;;;;;;;36.08;19.73;;;9.50;99.90;;;;;;5090660;27;20344;-83
2021/12/01 00:32:54;;;;;;;35.80;19.77;;;9.50;99.90;;;;;;5109662;27;20163;-83
2021/12/01 00:35:22;;;;;;;39.38;21.48;;;9.50;99.90;;;;;;5088437;27;20043;-83
2021/12/01 00:37:48;;;;;;;42.83;22.60;;;9.60;99.90;;;;;;5093485;27;20028;-83
2021/12/01 00:40:14;;;;;;;44.25;23.42;;;9.60;99.90;;;;;;5111680;27;20032;-83
2021/12/01 00:42:44;;;;;;;41.00;22.75;;;9.50;99.90;;;;;;5105395;27;20126;-83
2021/12/01 00:45:21;;;;;;;39.78;22.67;;;9.60;99.90;;;;;;5109423;27;20053;-83
2021/12/01 00:47:52;;;;;;;38.58;22.67;;;9.60;99.90;;;;;;5071000;28;20075;-82
2021/12/01 00:50:30;;;;;;;44.15;23.48;;;9.60;99.90;;;;;;5082706;27;20049;-83
2021/12/01 00:53:00;;;;;;;37.30;22.20;;;9.60;99.90;;;;;;5107456;27;20490;-83
2021/12/01 00:55:27;;;;;;;37.72;21.42;;;9.60;99.90;;;;;;5090350;28;20063;-82
2021/12/01 00:57:56;;;;;;;36.42;20.10;;;9.60;99.90;;;;;;5111269;27;20031;-82
2021/12/01 01:00:24;;;;;;;36.67;22.80;;;9.60;99.90;;;;;;5107825;27;20035;-83
2021/12/01 01:02:51;;;;;;;42.28;21.58;;;9.70;99.90;;;;;;5090725;28;20489;-83
2021/12/01 01:05:17;;;;;;;35.20;21.80;;;9.70;99.90;;;;;;5093607;27;20189;-83
2021/12/01 01:07:43;;;;;;;34.35;19.73;;;9.70;99.90;;;;;;5107949;27;20032;-83
2021/12/01 01:18:19;;;;;;;27.58;16.95;;;9.70;99.90;;;;;;5086661;28;20127;-83
2021/12/01 01:20:45;;;;;;;29.50;16.73;;;9.70;99.90;;;;;;5086213;28;20567;-83
2021/12/01 01:23:10;;;;;;;28.42;18.20;;;9.70;99.90;;;;;;5085298;27;20112;-83
2021/12/01 01:25:37;;;;;;;28.13;17.23;;;9.70;99.90;;;;;;5110994;27;20043;-82
2021/12/01 01:28:03;;;;;;;29.50;16.67;;;9.70;99.90;;;;;;5104879;27;20127;-83
2021/12/01 01:30:29;;;;;;;26.35;16.08;;;9.80;99.90;;;;;;5113183;27;20043;-83
2021/12/01 01:32:55;;;;;;;25.48;15.85;;;9.70;99.90;;;;;;5081703;28;20503;-83
2021/12/01 01:35:21;;;;;;;26.10;14.15;;;9.80;99.90;;;;;;5087326;28;20517;-83
2021/12/01 01:37:49;;;;;;;27.65;15.25;;;9.80;99.90;;;;;;5093465;27;20200;-83
2021/12/01 01:40:15;;;;;;;24.30;14.07;;;9.80;99.90;;;;;;5083818;28;20062;-82
2021/12/01 01:42:44;;;;;;;23.05;13.27;;;9.90;99.90;;;;;;5087922;27;20513;-82
2021/12/01 01:45:10;;;;;;;27.88;13.60;;;9.80;99.90;;;;;;5108552;27;20035;-83
2021/12/01 01:47:36;;;;;;;20.02;12.65;;;9.90;99.90;;;;;;5077771;27;20046;-83
2021/12/01 01:52:40;;;;;;;18.75;10.40;;;9.80;99.90;;;;;;5124533;27;20044;-82
2021/12/01 01:55:06;;;;;;;18.17;9.50;;;9.80;99.90;;;;;;5083684;27;20089;-82
2021/12/01 01:57:32;;;;;;;16.40;7.88;;;9.90;99.90;;;;;;5089730;28;20254;-82
2021/12/01 01:59:57;;;;;;;14.60;7.15;;;9.90;99.90;;;;;;5109495;27;20089;-82
2021/12/01 02:02:23;;;;;;;13.52;6.80;;;9.90;99.90;;;;;;5083421;28;20032;-83
2021/12/01 02:04:48;;;;;;;15.80;6.65;;;9.90;99.90;;;;;;5109941;27;20032;-82
2021/12/01 02:07:14;;;;;;;9.75;5.65;;;9.90;99.90;;;;;;5096071;28;20076;-82
2021/12/01 02:09:40;;;;;;;9.75;5.30;;;9.90;99.90;;;;;;5091265;28;20036;-82
2021/12/01 02:12:06;;;;;;;12.38;4.90;;;10.00;99.90;;;;;;5084314;28;20036;-82
2021/12/01 02:14:32;;;;;;;8.60;4.25;;;10.00;99.90;;;;;;5105512;28;20104;-82
2021/12/01 02:16:58;;;;;;;9.43;3.47;;;10.00;99.90;;;;;;5106919;28;20414;-82
2021/12/01 02:19:24;;;;;;;7.40;2.80;;;10.00;99.90;;;;;;5114309;28;20066;-82
2021/12/01 02:21:51;;;;;;;6.47;2.60;;;10.00;99.90;;;;;;5089751;28;20198;-83
2021/12/01 02:24:21;;;;;;;6.38;2.60;;;10.00;99.90;;;;;;5099603;28;20060;-82
2021/12/01 02:26:49;;;;;;;6.07;2.70;;;10.00;99.90;;;;;;5096586;28;20045;-83
2021/12/01 02:29:26;;;;;;;8.10;2.92;;;10.00;99.90;;;;;;5095452;28;20036;-83
2021/12/01 02:31:54;;;;;;;6.60;3.13;;;10.00;99.90;;;;;;5088883;28;20113;-83
2021/12/01 02:34:24;;;;;;;7.53;4.20;;;9.90;99.90;;;;;;5113562;27;20044;-83
2021/12/01 02:36:57;;;;;;;8.50;4.82;;;9.90;99.90;;;;;;5107441;28;20036;-84
2021/12/01 02:39:24;;;;;;;7.07;4.10;;;9.90;99.90;;;;;;5096950;27;20027;-83
2021/12/01 02:41:59;;;;;;;7.22;4.28;;;9.90;99.90;;;;;;5082665;28;20028;-84
2021/12/01 02:44:27;;;;;;;6.28;3.63;;;9.80;99.90;;;;;;5116720;27;20042;-83
2021/12/01 02:46:53;;;;;;;4.35;3.17;;;9.80;99.90;;;;;;5129498;27;20483;-83
2021/12/01 02:49:21;;;;;;;4.85;3.20;;;9.90;99.90;;;;;;5094204;28;20551;-83
2021/12/01 02:51:49;;;;;;;4.40;3.42;;;9.80;99.90;;;;;;5103155;27;20043;-83
2021/12/01 02:54:15;;;;;;;3.28;1.83;;;9.80;99.90;;;;;;5093988;27;20035;-82
2021/12/01 02:56:46;;;;;;;2.20;1.33;;;9.80;99.90;;;;;;5107223;27;20028;-83
2021/12/01 02:59:11;;;;;;;2.38;1.38;;;9.80;99.90;;;;;;5093537;27;20512;-82
2021/12/01 03:01:40;;;;;;;1.38;1.27;;;9.80;99.90;;;;;;5112107;27;20028;-83
2021/12/01 03:04:07;;;;;;;1.77;1.40;;;9.90;99.90;;;;;;5091000;27;20145;-83
2021/12/01 03:06:35;;;;;;;2.10;1.40;;;9.90;99.90;;;;;;5089012;28;20047;-83
2021/12/01 03:09:04;;;;;;;1.60;1.45;;;9.90;99.90;;;;;;5100534;27;20486;-83
2021/12/01 03:11:30;;;;;;;2.13;1.10;;;10.00;99.90;;;;;;5106646;27;20434;-83
2021/12/01 03:13:56;;;;;;;1.58;1.13;;;10.00;99.90;;;;;;5091185;27;20040;-83
2021/12/01 03:16:22;;;;;;;1.80;1.27;;;10.00;99.90;;;;;;5113718;27;20039;-83
2021/12/01 03:18:48;;;;;;;3.13;1.40;;;10.00;99.90;;;;;;5086611;27;20060;-83
2021/12/01 03:21:14;;;;;;;3.00;1.45;;;10.00;99.90;;;;;;5100792;27;20115;-82
2021/12/01 03:23:40;;;;;;;3.33;1.50;;;10.10;99.90;;;;;;5091859;27;20042;-82
2021/12/01 03:26:07;;;;;;;7.97;1.80;;;10.10;99.90;;;;;;5113449;27;20042;-82
2021/12/01 03:28:33;;;;;;;3.92;1.98;;;10.20;99.90;;;;;;5093859;28;20067;-83
2021/12/01 03:30:59;;;;;;;4.32;1.70;;;10.20;99.90;;;;;;5090512;27;20546;-82
2021/12/01 03:33:26;;;;;;;7.22;1.70;;;10.20;99.90;;;;;;5112994;27;20572;-82
2021/12/01 03:35:53;;;;;;;4.00;1.60;;;10.20;99.90;;;;;;5112971;27;20026;-82
2021/12/01 03:38:26;;;;;;;7.25;1.65;;;10.20;99.90;;;;;;5092586;27;20054;-83
2021/12/01 03:40:52;;;;;;;2.70;1.27;;;10.20;99.90;;;;;;5113810;27;20039;-83
2021/12/01 03:43:18;;;;;;;3.17;1.40;;;10.10;99.90;;;;;;5099390;27;20138;-82
2021/12/01 03:45:44;;;;;;;5.10;1.40;;;10.20;99.90;;;;;;5101372;27;20039;-83
2021/12/01 03:48:10;;;;;;;9.52;1.83;;;10.10;99.90;;;;;;5101792;27;20046;-83
2021/12/01 03:50:38;;;;;;;8.32;2.03;;;10.20;99.90;;;;;;5093851;27;20118;-82
2021/12/01 03:53:05;;;;;;;10.55;2.22;;;10.20;99.90;;;;;;5096979;27;20035;-83
2021/12/01 03:55:30;;;;;;;10.95;2.17;;;10.20;99.90;;;;;;5088420;27;20116;-82
2021/12/01 03:57:56;;;;;;;10.05;2.20;;;10.20;99.90;;;;;;5088846;27;20486;-83
2021/12/01 04:00:22;;;;;;;13.57;2.20;;;10.20;99.90;;;;;;5104179;27;20044;-82
2021/12/01 04:02:48;;;;;;;9.65;3.00;;;10.10;99.90;;;;;;5093541;27;20032;-83
2021/12/01 04:05:15;;;;;;;16.48;3.13;;;10.10;99.90;;;;;;5133201;27;20096;-83
2021/12/01 04:07:41;;;;;;;7.55;2.10;;;10.10;99.90;;;;;;5089693;28;20089;-83
2021/12/01 04:10:10;;;;;;;9.63;2.40;;;10.10;99.90;;;;;;5101970;27;20039;-83
2021/12/01 04:12:36;;;;;;;7.75;2.25;;;10.10;99.90;;;;;;5113516;27;20362;-82
2021/12/01 04:15:03;;;;;;;9.65;2.55;;;10.00;99.90;;;;;;5116699;27;20049;-82
2021/12/01 04:17:29;;;;;;;8.40;2.28;;;10.10;99.90;;;;;;5089671;28;20375;-83
2021/12/01 04:19:54;;;;;;;8.80;2.50;;;10.00;99.90;;;;;;5094474;27;20084;-83
2021/12/01 04:22:20;;;;;;;11.88;2.47;;;10.10;99.90;;;;;;5089235;28;20050;-83
2021/12/01 04:24:45;;;;;;;9.32;2.45;;;10.00;99.90;;;;;;5091254;27;20042;-83
2021/12/01 04:27:12;;;;;;;8.95;3.10;;;10.00;99.90;;;;;;5085174;28;20048;-82
2021/12/01 04:29:38;;;;;;;6.72;2.40;;;10.00;99.90;;;;;;5088853;27;20045;-83
2021/12/01 04:32:05;;;;;;;6.07;2.50;;;10.00;99.90;;;;;;5096806;27;20070;-82
2021/12/01 04:34:30;;;;;;;11.77;2.83;;;9.90;99.90;;;;;;5081253;27;20044;-83
2021/12/01 04:36:57;;;;;;;5.35;2.17;;;9.90;99.90;;;;;;5087931;28;20039;-83
2021/12/01 04:39:23;;;;;;;4.78;2.00;;;9.90;99.90;;;;;;5101791;27;20039;-83
2021/12/01 04:41:53;;;;;;;4.57;2.45;;;9.90;99.90;;;;;;5099137;27;20035;-83
2021/12/01 04:44:25;;;;;;;7.95;2.30;;;9.90;99.90;;;;;;5109480;27;20059;-83
2021/12/01 04:46:56;;;;;;;4.38;2.33;;;9.90;99.90;;;;;;5109293;27;20499;-82
2021/12/01 04:49:23;;;;;;;4.65;2.38;;;9.80;99.90;;;;;;5095245;27;20137;-83
2021/12/01 04:51:54;;;;;;;8.15;2.78;;;9.90;99.90;;;;;;5087589;28;20130;-83
2021/12/01 04:54:20;;;;;;;3.97;2.83;;;9.90;99.90;;;;;;5085176;28;20035;-82
2021/12/01 04:56:47;;;;;;;7.45;3.20;;;9.90;99.90;;;;;;5094425;27;21510;-82
2021/12/01 04:59:13;;;;;;;5.05;3.50;;;9.90;99.90;;;;;;5106997;27;20031;-83
2021/12/01 05:01:41;;;;;;;3.85;2.83;;;9.90;99.90;;;;;;5084974;28;20067;-82
2021/12/01 05:04:08;;;;;;;3.50;2.50;;;9.80;99.90;;;;;;5090406;27;20074;-82
2021/12/01 05:06:34;;;;;;;4.47;2.85;;;9.90;99.90;;;;;;5081158;28;20039;-83
2021/12/01 05:08:59;;;;;;;4.05;2.20;;;9.90;99.90;;;;;;5092069;27;20031;-83
2021/12/01 05:11:25;;;;;;;2.50;2.05;;;9.80;99.90;;;;;;5094684;27;20043;-82
2021/12/01 05:13:52;;;;;;;2.40;1.90;;;9.90;99.90;;;;;;5096035;27;20123;-83
2021/12/01 05:16:21;;;;;;;2.47;1.85;;;9.80;99.90;;;;;;5084635;28;20031;-83
2021/12/01 05:18:47;;;;;;;3.10;1.65;;;9.80;99.90;;;;;;5100272;27;20039;-82
2021/12/01 05:21:13;;;;;;;5.30;2.60;;;9.80;99.90;;;;;;5095474;27;20060;-83
2021/12/01 05:23:39;;;;;;;2.50;2.13;;;9.80;99.90;;;;;;5097840;27;20089;-83
2021/12/01 05:26:06;;;;;;;2.45;2.00;;;9.80;99.90;;;;;;5101428;27;20047;-83
2021/12/01 05:28:32;;;;;;;3.65;1.98;;;9.70;99.90;;;;;;5086509;28;20398;-83
2021/12/01 05:30:58;;;;;;;2.70;2.22;;;9.70;99.90;;;;;;5094126;27;20050;-82
2021/12/01 05:33:24;;;;;;;2.80;2.00;;;9.70;99.90;;;;;;5082916;28;20039;-83
2021/12/01 05:35:50;;;;;;;2.65;2.05;;;9.70;99.90;;;;;;5103598;27;20035;-83
2021/12/01 05:38:16;;;;;;;4.28;2.00;;;9.70;99.90;;;;;;5114196;27;20050;-83
2021/12/01 05:40:47;;;;;;;2.30;1.90;;;9.70;99.90;;;;;;5093192;28;20032;-83
2021/12/01 05:43:13;;;;;;;2.33;1.75;;;9.70;99.90;;;;;;5084645;27;20454;-82
2021/12/01 05:45:39;;;;;;;2.22;1.77;;;9.60;99.90;;;;;;5127379;27;20335;-82
2021/12/01 05:48:05;;;;;;;2.45;1.95;;;9.60;99.90;;;;;;5106997;27;20530;-82
2021/12/01 05:50:30;;;;;;;2.58;2.00;;;9.70;99.90;;;;;;5089787;28;20034;-83
2021/12/01 05:52:56;;;;;;;2.28;1.80;;;9.70;99.90;;;;;;5090280;28;20064;-82
2021/12/01 05:55:22;;;;;;;4.20;2.30;;;9.60;99.90;;;;;;5083079;28;20494;-83
2021/12/01 05:57:47;;;;;;;2.88;2.00;;;9.60;99.90;;;;;;5112180;27;20474;-82
2021/12/01 06:00:14;;;;;;;2.45;2.10;;;9.60;99.90;;;;;;5107912;28;20281;-82
2021/12/01 06:02:42;;;;;;;2.60;2.15;;;9.60;99.90;;;;;;5099651;27;20515;-83
2021/12/01 06:05:08;;;;;;;2.58;2.05;;;9.60;99.90;;;;;;5093453;28;20039;-83
2021/12/01 06:07:34;;;;;;;3.60;2.20;;;9.50;99.90;;;;;;5104557;28;20361;-82
2021/12/01 06:10:02;;;;;;;2.63;2.05;;;9.50;99.90;;;;;;5094024;28;20028;-82
2021/12/01 06:12:32;;;;;;;4.05;2.22;;;9.50;99.90;;;;;;5091589;27;20172;-82
2021/12/01 06:14:59;;;;;;;2.67;2.35;;;9.50;99.90;;;;;;5112861;27;20443;-83
2021/12/01 06:17:25;;;;;;;2.83;2.33;;;9.50;99.90;;;;;;5129179;27;20075;-82
2021/12/01 06:19:52;;;;;;;2.65;2.20;;;9.50;99.90;;;;;;5112265;27;20062;-83
2021/12/01 06:22:17;;;;;;;2.92;2.30;;;9.40;99.90;;;;;;5095518;28;20506;-82
2021/12/01 06:24:43;;;;;;;2.00;1.80;;;9.50;99.90;;;;;;5111079;27;20039;-82
2021/12/01 06:27:11;;;;;;;2.47;2.28;;;9.50;99.90;;;;;;5092574;28;20036;-82
2021/12/01 06:29:39;;;;;;;2.80;2.22;;;9.50;99.90;;;;;;5099751;27;20039;-82
2021/12/01 06:32:05;;;;;;;2.40;2.20;;;9.50;99.90;;;;;;5087422;28;20456;-82
2021/12/01 06:34:31;;;;;;;2.88;2.58;;;9.40;99.90;;;;;;5115948;27;20035;-82
2021/12/01 06:36:57;;;;;;;3.35;3.00;;;9.40;99.90;;;;;;5115156;27;20464;-83
2021/12/01 06:39:22;;;;;;;3.05;2.60;;;9.40;99.90;;;;;;5108770;27;20394;-82
2021/12/01 06:41:48;;;;;;;4.97;3.10;;;9.40;99.90;;;;;;5113422;27;20039;-82
2021/12/01 06:44:14;;;;;;;3.05;2.60;;;9.30;99.90;;;;;;5105004;27;20069;-83
2021/12/01 06:46:40;;;;;;;2.88;2.55;;;9.30;99.90;;;;;;5088800;28;20036;-83
2021/12/01 06:49:09;;;;;;;3.97;2.42;;;9.30;99.90;;;;;;5113473;27;20140;-82
2021/12/01 06:51:34;;;;;;;2.72;2.35;;;9.30;99.90;;;;;;5096332;27;20038;-82
2021/12/01 06:54:00;;;;;;;2.35;2.10;;;9.30;99.90;;;;;;5096687;27;20465;-83
2021/12/01 06:56:26;;;;;;;2.90;2.30;;;9.30;99.90;;;;;;5114071;27;20050;-83
2021/12/01 06:58:51;;;;;;;2.10;1.90;;;9.30;99.90;;;;;;5109979;27;21478;-82
2021/12/01 07:01:17;;;;;;;1.90;1.70;;;9.20;99.90;;;;;;5109639;27;20372;-83
2021/12/01 07:03:42;;;;;;;2.20;1.83;;;9.20;99.90;;;;;;5113199;27;20139;-82
2021/12/01 07:06:08;;;;;;;3.28;2.00;;;9.20;99.90;;;;;;5107979;27;20197;-83
2021/12/01 07:08:35;;;;;;;2.08;1.83;;;9.20;99.90;;;;;;5111878;27;20050;-83
2021/12/01 07:11:02;;;;;;;2.17;1.77;;;9.20;99.90;;;;;;5100381;27;20473;-83
2021/12/01 07:13:31;;;;;;;2.55;1.80;;;9.20;99.90;;;;;;5093404;27;20425;-83
2021/12/01 07:15:57;;;;;;;2.55;1.83;;;9.20;99.90;;;;;;5094826;27;20035;-83
2021/12/01 07:18:23;;;;;;;2.42;2.00;;;9.20;99.90;;;;;;5114415;27;20043;-82
2021/12/01 07:20:51;;;;;;;2.53;1.60;;;9.20;99.90;;;;;;5092993;27;20469;-82
2021/12/01 07:23:17;;;;;;;2.08;1.67;;;9.20;99.90;;;;;;5094803;27;20258;-82
2021/12/01 07:25:43;;;;;;;1.42;1.30;;;9.20;99.90;;;;;;5093010;27;20365;-83
2021/12/01 07:28:09;;;;;;;1.88;1.67;;;9.20;99.90;;;;;;5093214;28;20122;-83
2021/12/01 07:30:35;;;;;;;2.05;1.65;;;9.20;99.90;;;;;;5090461;27;20039;-83
2021/12/01 07:33:01;;;;;;;1.90;1.70;;;9.20;99.90;;;;;;5085584;27;20055;-83
2021/12/01 07:35:27;;;;;;;1.67;1.50;;;9.20;99.90;;;;;;5131150;27;20485;-82
2021/12/01 07:37:56;;;;;;;2.28;1.90;;;9.20;99.90;;;;;;5124643;27;20047;-83
2021/12/01 07:40:21;;;;;;;2.60;1.80;;;9.20;99.90;;;;;;5112032;27;20218;-82
2021/12/01 07:42:47;;;;;;;6.45;2.10;;;9.20;99.90;;;;;;5100998;27;20064;-83
2021/12/01 07:45:12;;;;;;;2.67;2.08;;;9.20;99.90;;;;;;5061568;27;20370;-82
2021/12/01 07:47:39;;;;;;;3.20;2.55;;;9.20;99.90;;;;;;5024357;28;20080;-82
2021/12/01 07:50:06;;;;;;;4.40;2.50;;;9.20;99.90;;;;;;5048411;28;20124;-82
2021/12/01 07:52:32;;;;;;;2.80;2.50;;;9.30;99.90;;;;;;5045976;28;20036;-82
2021/12/01 07:55:02;;;;;;;4.93;2.80;;;9.30;99.90;;;;;;5043701;28;20307;-82
2021/12/01 07:57:27;;;;;;;3.33;2.78;;;9.20;99.90;;;;;;5045092;28;20140;-83
2021/12/01 07:59:53;;;;;;;2.65;2.45;;;9.30;99.90;;;;;;5044588;28;20124;-83
2021/12/01 08:02:19;;;;;;;4.28;3.00;;;9.30;99.90;;;;;;5061682;28;20040;-83
2021/12/01 08:04:44;;;;;;;3.10;2.50;;;9.30;99.90;;;;;;5057674;28;20041;-83
2021/12/01 08:07:10;;;;;;;3.25;2.70;;;9.30;99.90;;;;;;5047666;28;20076;-83
2021/12/01 08:09:36;;;;;;;3.17;2.85;;;9.30;99.90;;;;;;5062795;28;20052;-83
2021/12/01 08:12:07;;;;;;;4.50;3.08;;;9.40;99.90;;;;;;5063145;28;20064;-83
2021/12/01 08:14:33;;;;;;;4.70;3.40;;;9.30;99.90;;;;;;5049608;28;20040;-83
2021/12/01 08:16:58;;;;;;;6.57;3.67;;;9.30;99.90;;;;;;5057346;28;20102;-83
2021/12/01 08:19:24;;;;;;;5.50;4.10;;;9.30;99.90;;;;;;5039673;28;20041;-83
2021/12/01 08:21:50;;;;;;;5.32;4.10;;;9.30;99.90;;;;;;5063569;28;20309;-83
2021/12/01 08:24:17;;;;;;;5.05;4.28;;;9.40;99.90;;;;;;5049432;28;20049;-83
2021/12/01 08:26:46;;;;;;;5.40;4.22;;;9.30;99.90;;;;;;5058258;28;20078;-83
2021/12/01 08:29:12;;;;;;;6.60;4.30;;;9.40;99.90;;;;;;5056736;28;20070;-83
2021/12/01 08:31:39;;;;;;;5.13;3.65;;;9.30;99.90;;;;;;5057430;28;20060;-83
2021/12/01 08:34:05;;;;;;;7.38;3.60;;;9.40;99.90;;;;;;5047370;28;20545;-83
2021/12/01 08:36:31;;;;;;;5.53;3.15;;;9.40;99.90;;;;;;5040688;28;20032;-83
2021/12/01 08:38:57;;;;;;;5.07;2.72;;;9.40;99.90;;;;;;5062887;28;20109;-82
2021/12/01 08:41:25;;;;;;;4.57;3.45;;;9.50;99.90;;;;;;5048314;28;20071;-82
2021/12/01 08:43:51;;;;;;;3.67;2.20;;;9.50;99.90;;;;;;5042336;28;20079;-82
2021/12/01 08:46:16;;;;;;;4.72;2.10;;;9.40;99.90;;;;;;5058919;28;20040;-82
2021/12/01 08:48:42;;;;;;;7.93;2.00;;;9.50;99.90;;;;;;5057074;28;20086;-82
2021/12/01 08:51:08;;;;;;;6.25;1.95;;;9.60;99.90;;;;;;5059619;28;20139;-82
2021/12/01 08:53:36;;;;;;;7.03;2.20;;;9.50;99.90;;;;;;5057309;28;20041;-82
2021/12/01 08:56:03;;;;;;;9.18;2.17;;;9.50;99.90;;;;;;5041802;28;20032;-82
2021/12/01 08:58:29;;;;;;;7.88;2.13;;;9.60;99.90;;;;;;5047509;28;20050;-82
2021/12/01 09:00:55;;;;;;;9.88;2.35;;;9.70;99.90;;;;;;5038390;28;20036;-82
2021/12/01 09:03:23;;;;;;;8.80;2.30;;;9.60;99.90;;;;;;5042801;28;20044;-82
2021/12/01 09:05:50;;;;;;;7.70;2.08;;;9.70;99.90;;;;;;5058656;28;20032;-82
2021/12/01 09:08:20;;;;;;;11.40;2.22;;;9.60;99.90;;;;;;5074834;28;20044;-82
2021/12/01 09:10:48;;;;;;;9.18;1.90;;;9.60;99.90;;;;;;5043495;28;20048;-82
2021/12/01 09:13:15;;;;;;;5.65;1.50;;;9.60;99.90;;;;;;5043522;28;20186;-82
2021/12/01 09:15:42;;;;;;;10.20;1.83;;;9.60;99.90;;;;;;5061073;28;20564;-82
2021/12/01 09:18:08;;;;;;;5.72;1.55;;;9.70;99.90;;;;;;5055496;28;20037;-82
2021/12/01 09:20:34;;;;;;;8.32;1.50;;;9.60;99.90;;;;;;5056459;28;20041;-82
2021/12/01 09:23:00;;;;;;;6.53;2.10;;;9.60;99.90;;;;;;5062082;28;20044;-82
2021/12/01 09:25:26;;;;;;;11.10;1.50;;;9.60;99.90;;;;;;5045123;28;20108;-83
2021/12/01 09:27:52;;;;;;;3.00;1.27;;;9.60;99.90;;;;;;5056558;28;20117;-82
2021/12/01 09:30:18;;;;;;;8.60;1.73;;;9.50;99.90;;;;;;5069361;28;20040;-83
2021/12/01 09:32:45;;;;;;;7.72;2.05;;;9.50;99.90;;;;;;5041369;28;20127;-81
2021/12/01 09:35:13;;;;;;;7.32;1.50;;;9.50;99.90;;;;;;5060277;28;20097;-82
2021/12/01 09:37:39;;;;;;;6.50;1.27;;;9.40;99.90;;;;;;5055342;28;20043;-82
2021/12/01 09:40:12;;;;;;;7.63;1.85;;;9.40;99.90;;;;;;5044712;28;20036;-82
2021/12/01 09:42:48;;;;;;;5.40;1.58;;;9.30;99.90;;;;;;5079885;28;20044;-82
2021/12/01 09:45:16;;;;;;;4.10;0.95;;;9.30;99.90;;;;;;5048006;28;20081;-82
2021/12/01 09:47:42;;;;;;;6.10;1.40;;;9.30;99.90;;;;;;5044254;28;20032;-82
2021/12/01 09:50:12;;;;;;;5.72;1.30;;;9.30;99.90;;;;;;5034499;28;20098;-82
2021/12/01 09:52:38;;;;;;;6.28;1.20;;;9.30;99.90;;;;;;5047876;28;20033;-82
2021/12/01 09:55:05;;;;;;;6.10;1.83;;;9.30;99.90;;;;;;5038195;28;20384;-82
2021/12/01 09:57:30;;;;;;;7.15;1.88;;;9.30;99.90;;;;;;5043229;28;20447;-82
2021/12/01 09:59:56;;;;;;;7.57;1.77;;;9.20;99.90;;;;;;5039740;28;20051;-82
2021/12/01 10:02:24;;;;;;;5.57;1.20;;;9.20;99.90;;;;;;5042303;28;20119;-82
2021/12/01 10:04:51;;;;;;;7.97;1.70;;;9.30;99.90;;;;;;5041163;28;20345;-82
2021/12/01 10:07:22;;;;;;;7.50;1.65;;;9.30;99.90;;;;;;5041863;28;20503;-82
2021/12/01 10:09:51;;;;;;;6.68;1.85;;;9.40;99.90;;;;;;5047278;28;20046;-82
2021/12/01 10:12:18;;;;;;;11.20;3.15;;;9.40;99.90;;;;;;5043741;28;20052;-82
2021/12/01 10:14:46;;;;;;;6.82;1.60;;;9.40;99.90;;;;;;5043789;28;20356;-82
2021/12/01 10:17:12;;;;;;;8.05;1.90;;;9.40;99.90;;;;;;5059014;28;20060;-82
2021/12/01 10:19:37;;;;;;;9.65;1.55;;;9.40;99.90;;;;;;5060752;28;20400;-82
2021/12/01 10:22:10;;;;;;;11.82;2.33;;;9.40;99.90;;;;;;5042803;28;20090;-82
2021/12/01 10:24:37;;;;;;;7.40;1.70;;;9.40;99.90;;;;;;5046486;28;20494;-82
2021/12/01 10:27:09;;;;;;;12.75;2.53;;;9.50;99.90;;;;;;5062040;28;20102;-82
2021/12/01 10:29:50;;;;;;;7.93;1.45;;;9.40;99.90;;;;;;5043366;28;20151;-82
2021/12/01 10:32:19;;;;;;;7.97;2.60;;;9.40;99.90;;;;;;5050349;28;20095;-82
2021/12/01 10:34:53;;;;;;;9.65;1.83;;;9.40;99.90;;;;;;5043874;28;20394;-82
2021/12/01 10:37:28;;;;;;;8.77;2.15;;;9.40;99.90;;;;;;5077248;28;20314;-82
2021/12/01 10:40:15;;;;;;;10.57;2.10;;;9.40;99.90;;;;;;5046680;28;20060;-81
2021/12/01 10:43:02;;;;;;;5.03;1.55;;;9.40;99.90;;;;;;5039175;28;20045;-82
2021/12/01 10:45:40;;;;;;;10.02;2.47;;;9.50;99.90;;;;;;5062361;28;20044;-82
2021/12/01 10:48:08;;;;;;;9.60;2.25;;;9.50;99.90;;;;;;5041237;28;20570;-82
2021/12/01 10:50:36;;;;;;;5.53;1.70;;;9.50;99.90;;;;;;5045104;28;20402;-82
2021/12/01 10:53:06;;;;;;;11.40;1.90;;;9.50;99.90;;;;;;5042956;28;20115;-82
2021/12/01 10:55:34;;;;;;;7.15;1.75;;;9.30;99.90;;;;;;5040634;28;20032;-82
2021/12/01 10:58:05;;;;;;;8.95;1.90;;;9.30;99.90;;;;;;5079331;28;20024;-82
2021/12/01 11:00:38;;;;;;;6.80;1.70;;;9.20;99.90;;;;;;5051075;28;20082;-82
2021/12/01 11:03:17;;;;;;;7.65;1.65;;;9.20;99.90;;;;;;5048523;28;20081;-82
2021/12/01 11:06:14;;;;;;;8.82;2.08;;;9.10;99.90;;;;;;5062960;28;20033;-82
2021/12/01 11:08:42;;;;;;;4.40;1.70;;;9.00;99.90;;;;;;5060206;28;20060;-82
2021/12/01 11:11:18;;;;;;;6.40;1.67;;;9.00;99.90;;;;;;5051963;28;20032;-82
2021/12/01 11:13:46;;;;;;;11.38;2.22;;;9.00;99.90;;;;;;5064367;28;20047;-82
2021/12/01 11:16:15;;;;;;;5.57;1.60;;;9.00;99.90;;;;;;5057123;28;20036;-82
2021/12/01 11:18:47;;;;;;;6.72;1.92;;;9.00;99.90;;;;;;5061561;28;20047;-82
2021/12/01 11:21:22;;;;;;;8.60;1.92;;;9.20;99.90;;;;;;5041026;28;20399;-83
2021/12/01 11:23:52;;;;;;;9.85;1.92;;;9.30;99.90;;;;;;5048380;28;20048;-82
2021/12/01 11:26:20;;;;;;;6.05;1.98;;;9.40;99.90;;;;;;5080697;28;20048;-82
2021/12/01 11:28:51;;;;;;;10.32;2.00;;;9.40;99.90;;;;;;5060135;28;20895;-83
2021/12/01 11:31:26;;;;;;;10.93;2.65;;;9.30;99.90;;;;;;5054133;28;20549;-82
2021/12/01 11:33:55;;;;;;;;;;;9.30;99.90;;;;;;5062148;28;20053;-82
2021/12/01 11:36:33;;;;;;;14.07;2.40;;;9.30;99.90;;;;;;5047649;28;20033;-81
2021/12/01 11:39:01;;;;;;;10.85;2.28;;;9.10;99.90;;;;;;5078042;28;20029;-82
2021/12/01 11:41:28;;;;;;;9.93;2.40;;;8.90;99.90;;;;;;5048756;28;20379;-82
2021/12/01 11:43:55;;;;;;;12.60;2.78;;;8.80;99.90;;;;;;5072228;28;20101;-82
2021/12/01 11:46:21;;;;;;;9.55;2.47;;;8.70;99.90;;;;;;5044089;28;20063;-82
2021/12/01 11:48:53;;;;;;;11.13;2.55;;;8.60;99.90;;;;;;5062287;28;20582;-82
2021/12/01 11:51:57;;;;;;;17.45;3.42;;;8.60;99.90;;;;;;5036574;28;20062;-82
2021/12/01 11:54:24;;;;;;;17.45;2.80;;;8.60;99.90;;;;;;5067024;28;20044;-82
2021/12/01 11:56:58;;;;;;;10.55;2.33;;;8.60;99.90;;;;;;5047710;28;20036;-82
2021/12/01 11:59:47;;;;;;;12.93;2.85;;;8.60;99.90;;;;;;5065120;28;20033;-81
2021/12/01 12:02:16;;;;;;;18.98;3.45;;;8.60;99.90;;;;;;5043423;28;20101;-83
2021/12/01 12:04:52;;;;;;;9.68;2.22;;;8.50;99.90;;;;;;5034117;28;20496;-83
2021/12/01 12:07:32;;;;;;;16.88;3.35;;;8.50;99.90;;;;;;5061703;28;20045;-82
2021/12/01 12:10:18;;;;;;;17.33;3.03;;;8.50;99.90;;;;;;5055892;28;20059;-82
2021/12/01 12:12:57;;;;;;;12.05;3.42;;;8.50;99.90;;;;;;5034747;28;20037;-82
2021/12/01 12:15:54;;;;;;;14.30;2.78;;;8.50;99.90;;;;;;5057622;28;20044;-82
2021/12/01 12:18:35;;;;;;;12.38;2.67;;;8.50;99.90;;;;;;5055391;28;20048;-82
2021/12/01 12:21:20;;;;;;;14.93;3.30;;;8.50;99.90;;;;;;5055190;28;20041;-81
2021/12/01 12:23:46;;;;;;;16.93;3.30;;;8.50;99.90;;;;;;5075621;28;20044;-82
2021/12/01 12:26:12;;;;;;;12.50;2.60;;;8.50;99.90;;;;;;5054607;28;20044;-82
2021/12/01 12:28:40;;;;;;;14.25;2.88;;;8.50;99.90;;;;;;5052676;28;20054;-82
2021/12/01 12:31:24;;;;;;;14.98;2.97;;;8.60;99.90;;;;;;5043392;28;20415;-82
2021/12/01 12:33:57;;;;;;;12.05;2.63;;;8.60;99.90;;;;;;5043228;28;20047;-82
2021/12/01 12:36:46;;;;;;;16.48;2.92;;;8.50;99.90;;;;;;5042479;28;20036;-82
2021/12/01 12:39:15;;;;;;;13.18;2.50;;;8.50;99.90;;;;;;5042809;28;20044;-81
2021/12/01 12:42:00;;;;;;;11.43;2.42;;;8.50;99.90;;;;;;5045482;28;20254;-82
2021/12/01 12:44:43;;;;;;;8.68;2.00;;;8.60;99.90;;;;;;5056482;28;20128;-82
2021/12/01 12:47:11;;;;;;;20.50;3.17;;;8.60;99.90;;;;;;5040816;28;20325;-82
2021/12/01 12:49:41;;;;;;;10.07;2.15;;;8.60;99.90;;;;;;5058886;28;20119;-82
2021/12/01 12:52:25;;;;;;;5.75;1.80;;;8.60;99.90;;;;;;5047725;28;20028;-82
2021/12/01 12:55:07;;;;;;;10.50;2.45;;;8.60;99.90;;;;;;5058863;28;20093;-82
2021/12/01 12:58:00;;;;;;;9.82;2.08;;;8.60;99.90;;;;;;5057715;28;20040;-82
2021/12/01 13:00:32;;;;;;;5.70;1.70;;;8.60;99.90;;;;;;5068105;28;20085;-82
2021/12/01 13:03:21;;;;;;;13.75;1.92;;;8.60;99.90;;;;;;5074932;28;20040;-82
2021/12/01 13:05:46;;;;;;;7.85;1.90;;;8.60;99.90;;;;;;5058886;28;20214;-82
2021/12/01 13:08:38;;;;;;;7.32;1.88;;;8.60;99.90;;;;;;5041422;28;20033;-82